Time;durP1;ratioP1;P1;durP2;ratioP2;P2;SDS_P1;SDS_P2;PMS_P1;PMS_P2;Temp;Humidity;BMP_temperature;BMP_pressure;BME280_temperature;BME280_humidity;BME280_pressure;Samples;Min_cycle;Max_cycle;Signal;HPM_P1;HPM_P2
2022/03/28 00:00:54;;;;;;;12.32;6.60;;;7.30;99.90;;;;;;4982243;28;20031;-77
2022/03/28 00:03:20;;;;;;;11.13;5.82;;;7.30;99.90;;;;;;4963952;28;20393;-76
2022/03/28 00:05:46;;;;;;;9.82;5.30;;;7.30;99.90;;;;;;4981083;28;20033;-77
2022/03/28 00:08:11;;;;;;;12.10;5.43;;;7.20;99.90;;;;;;4980059;28;20540;-77
2022/03/28 00:10:37;;;;;;;9.43;5.03;;;7.20;99.90;;;;;;4982634;28;20189;-78
2022/03/28 00:13:03;;;;;;;10.50;4.80;;;7.10;99.90;;;;;;4952986;28;20031;-78
2022/03/28 00:15:29;;;;;;;9.18;4.18;;;7.10;99.90;;;;;;4963879;28;20110;-77
2022/03/28 00:17:54;;;;;;;9.68;4.32;;;7.10;99.90;;;;;;4977205;28;20102;-76
2022/03/28 00:20:20;;;;;;;9.25;4.70;;;7.10;99.90;;;;;;4979698;28;20518;-77
2022/03/28 00:22:46;;;;;;;9.15;5.68;;;7.10;99.90;;;;;;4984051;28;20094;-76
2022/03/28 00:25:12;;;;;;;8.27;5.00;;;7.10;99.90;;;;;;4949285;28;20019;-77
2022/03/28 00:27:39;;;;;;;9.68;5.32;;;7.10;99.90;;;;;;4968555;28;20034;-76
2022/03/28 00:30:06;;;;;;;7.88;4.10;;;7.00;99.90;;;;;;4964434;28;20034;-77
2022/03/28 00:32:32;;;;;;;8.75;4.40;;;7.00;99.90;;;;;;4952913;28;20715;-77
2022/03/28 00:35:00;;;;;;;7.18;3.80;;;7.00;99.90;;;;;;4967308;28;20027;-77
2022/03/28 00:37:26;;;;;;;8.57;4.07;;;7.00;99.90;;;;;;4971496;28;20035;-77
2022/03/28 00:39:52;;;;;;;6.40;3.80;;;7.00;99.90;;;;;;4986092;28;20035;-77
2022/03/28 00:42:17;;;;;;;9.05;4.00;;;6.90;99.90;;;;;;4966213;28;20027;-77
2022/03/28 00:44:43;;;;;;;8.65;4.38;;;7.00;99.90;;;;;;4985166;28;20057;-77
2022/03/28 00:47:09;;;;;;;7.13;4.20;;;6.90;99.90;;;;;;4952027;28;20041;-77
2022/03/28 00:49:34;;;;;;;6.85;4.40;;;6.90;99.90;;;;;;4978211;28;20178;-76
2022/03/28 00:52:00;;;;;;;10.25;5.32;;;6.90;99.90;;;;;;4971526;28;20042;-77
2022/03/28 00:54:26;;;;;;;8.55;5.35;;;7.00;99.90;;;;;;4968322;28;20620;-76
2022/03/28 00:56:52;;;;;;;9.45;5.35;;;7.00;99.90;;;;;;4968419;28;20031;-77
2022/03/28 00:59:18;;;;;;;8.20;5.00;;;7.00;99.90;;;;;;4968065;28;20037;-77
2022/03/28 01:01:46;;;;;;;10.63;6.15;;;7.00;99.90;;;;;;4984839;28;20048;-77
2022/03/28 01:04:12;;;;;;;10.60;6.13;;;7.00;99.90;;;;;;4983991;28;20526;-77
2022/03/28 01:06:38;;;;;;;9.25;5.75;;;7.00;99.90;;;;;;4982601;28;20026;-77
2022/03/28 01:09:08;;;;;;;9.43;5.88;;;7.10;99.90;;;;;;4966260;28;20561;-76
2022/03/28 01:11:34;;;;;;;13.40;6.22;;;7.00;99.90;;;;;;4966039;28;20034;-76
2022/03/28 01:14:01;;;;;;;11.30;5.65;;;7.00;99.90;;;;;;4968370;28;20026;-76
2022/03/28 01:19:17;;;;;;;11.07;6.43;;;7.00;99.90;;;;;;4982699;28;20038;-76
2022/03/28 01:21:43;;;;;;;15.38;7.13;;;7.00;99.90;;;;;;4983477;28;20027;-76
2022/03/28 01:24:09;;;;;;;14.85;7.03;;;7.00;99.90;;;;;;4976218;28;20030;-76
2022/03/28 01:26:35;;;;;;;16.67;8.23;;;6.90;99.90;;;;;;4981893;28;20031;-76
2022/03/28 01:29:01;;;;;;;14.85;7.78;;;6.90;99.90;;;;;;4993600;28;20084;-76
2022/03/28 01:31:30;;;;;;;18.20;8.75;;;6.70;99.90;;;;;;4964867;28;20029;-76
2022/03/28 01:33:55;;;;;;;20.70;9.90;;;6.60;99.90;;;;;;4966644;28;20030;-76
2022/03/28 01:36:24;;;;;;;18.95;10.63;;;6.50;99.90;;;;;;4982922;28;20486;-76
2022/03/28 01:38:50;;;;;;;20.35;10.02;;;6.60;99.90;;;;;;4969990;28;20030;-77
2022/03/28 01:41:17;;;;;;;18.40;9.68;;;6.60;99.90;;;;;;4968742;28;20042;-76
2022/03/28 01:43:42;;;;;;;17.02;8.52;;;6.70;99.90;;;;;;4968884;28;20110;-76
2022/03/28 01:46:08;;;;;;;20.15;10.20;;;6.70;99.90;;;;;;4966985;28;20101;-76
2022/03/28 01:48:33;;;;;;;18.45;10.13;;;6.80;99.90;;;;;;4982917;28;20046;-77
2022/03/28 01:50:59;;;;;;;20.55;10.63;;;6.80;99.90;;;;;;4966622;28;20109;-77
2022/03/28 01:53:25;;;;;;;20.65;10.35;;;6.80;99.90;;;;;;4965584;28;20526;-77
2022/03/28 01:55:50;;;;;;;19.77;10.82;;;6.80;99.90;;;;;;4972681;28;20056;-76
2022/03/28 01:58:16;;;;;;;19.27;10.88;;;6.90;99.90;;;;;;4981099;28;20042;-76
2022/03/28 02:00:42;;;;;;;19.92;9.65;;;6.90;99.90;;;;;;4964959;28;20033;-76
2022/03/28 02:03:07;;;;;;;18.08;8.60;;;6.80;99.90;;;;;;4984440;28;20034;-77
2022/03/28 02:05:33;;;;;;;19.13;9.63;;;6.70;99.90;;;;;;4966348;28;20026;-77
2022/03/28 02:07:59;;;;;;;17.35;9.63;;;6.60;99.90;;;;;;4980764;28;20598;-76
2022/03/28 02:10:25;;;;;;;16.83;8.50;;;6.60;99.90;;;;;;4949233;28;20501;-76
2022/03/28 02:12:52;;;;;;;14.35;8.60;;;6.60;99.90;;;;;;4971477;28;20031;-78
2022/03/28 02:15:20;;;;;;;16.25;9.02;;;6.70;99.90;;;;;;4964517;28;20030;-77
2022/03/28 02:17:46;;;;;;;16.38;8.88;;;6.70;99.90;;;;;;4968503;28;20117;-77
2022/03/28 02:20:13;;;;;;;16.13;8.63;;;6.80;99.90;;;;;;4952500;28;20030;-77
2022/03/28 02:22:40;;;;;;;11.88;6.82;;;6.80;99.90;;;;;;4967719;28;20022;-77
2022/03/28 02:25:08;;;;;;;14.77;6.82;;;6.80;99.90;;;;;;4965785;28;20084;-77
2022/03/28 02:27:34;;;;;;;11.85;6.75;;;6.80;99.90;;;;;;4981509;28;20038;-77
2022/03/28 02:30:00;;;;;;;9.65;6.00;;;6.80;99.90;;;;;;4949007;28;20469;-77
2022/03/28 02:32:26;;;;;;;13.20;6.22;;;6.80;99.90;;;;;;4992332;28;20037;-77
2022/03/28 02:34:52;;;;;;;12.35;6.03;;;6.80;99.90;;;;;;4995036;28;20666;-77
2022/03/28 02:37:18;;;;;;;12.52;7.47;;;6.80;99.90;;;;;;4952890;28;20034;-77
2022/03/28 02:39:44;;;;;;;12.55;7.47;;;6.80;99.90;;;;;;4965664;28;20034;-75
2022/03/28 02:42:10;;;;;;;12.32;6.88;;;6.80;99.90;;;;;;4988037;28;20023;-77
2022/03/28 02:44:36;;;;;;;12.98;7.32;;;6.70;99.90;;;;;;4981794;28;20035;-77
2022/03/28 02:47:02;;;;;;;15.38;7.97;;;6.70;99.90;;;;;;4948864;28;20026;-77
2022/03/28 02:49:27;;;;;;;19.05;8.52;;;6.70;99.90;;;;;;4982040;28;20021;-77
2022/03/28 02:51:53;;;;;;;17.00;9.20;;;6.70;99.90;;;;;;4982348;28;20081;-78
2022/03/28 02:54:19;;;;;;;16.45;9.40;;;6.70;99.90;;;;;;4980324;28;20018;-77
2022/03/28 02:56:45;;;;;;;20.17;10.32;;;6.70;99.90;;;;;;4964299;28;20065;-77
2022/03/28 02:59:12;;;;;;;20.42;10.20;;;6.70;99.90;;;;;;4981791;28;20062;-78
2022/03/28 03:01:38;;;;;;;22.05;11.43;;;6.70;99.90;;;;;;4982118;28;20041;-77
2022/03/28 03:04:04;;;;;;;25.27;12.18;;;6.70;99.90;;;;;;4964596;28;20026;-77
2022/03/28 03:06:29;;;;;;;24.58;12.00;;;6.70;99.90;;;;;;4948135;28;20397;-77
2022/03/28 03:08:55;;;;;;;22.70;10.93;;;6.70;99.90;;;;;;4964890;28;20037;-77
2022/03/28 03:11:20;;;;;;;23.40;10.98;;;6.70;99.90;;;;;;4947346;28;20038;-78
2022/03/28 03:13:48;;;;;;;23.27;11.52;;;6.60;99.90;;;;;;4966152;28;20088;-77
2022/03/28 03:16:14;;;;;;;24.08;12.68;;;6.50;99.90;;;;;;4978719;28;20030;-77
2022/03/28 03:18:39;;;;;;;22.98;11.65;;;6.50;99.90;;;;;;4967564;28;20038;-78
2022/03/28 03:21:05;;;;;;;20.30;10.43;;;6.60;99.90;;;;;;4953046;28;20061;-78
2022/03/28 03:23:31;;;;;;;22.50;11.38;;;6.70;99.90;;;;;;4980530;28;20416;-77
2022/03/28 03:25:56;;;;;;;23.50;11.50;;;6.70;99.90;;;;;;4962409;28;20030;-78
2022/03/28 03:28:22;;;;;;;23.88;12.90;;;6.70;99.90;;;;;;4981097;28;20031;-77
2022/03/28 03:30:48;;;;;;;21.52;11.77;;;6.60;99.90;;;;;;4963079;28;20038;-76
2022/03/28 03:33:14;;;;;;;27.27;12.77;;;6.60;99.90;;;;;;4963610;28;20814;-76
2022/03/28 03:35:40;;;;;;;25.27;12.77;;;6.70;99.90;;;;;;4952493;28;20073;-76
2022/03/28 03:38:06;;;;;;;25.20;12.95;;;6.60;99.90;;;;;;4981285;28;20050;-77
2022/03/28 03:40:32;;;;;;;30.52;13.88;;;6.60;99.90;;;;;;4970261;28;20019;-77
2022/03/28 03:42:58;;;;;;;23.60;13.35;;;6.70;99.90;;;;;;4962943;28;20026;-77
2022/03/28 03:45:24;;;;;;;24.95;12.85;;;6.70;99.90;;;;;;4965684;28;20018;-77
2022/03/28 03:47:51;;;;;;;24.30;12.60;;;6.70;99.90;;;;;;4983097;28;20027;-78
2022/03/28 03:50:17;;;;;;;23.80;12.52;;;6.70;99.90;;;;;;4981581;28;20034;-77
2022/03/28 03:52:42;;;;;;;20.20;10.18;;;6.80;99.90;;;;;;4981120;28;20026;-76
2022/03/28 03:55:10;;;;;;;22.25;10.65;;;6.70;99.90;;;;;;4980890;28;20130;-77
2022/03/28 03:57:36;;;;;;;20.55;10.32;;;6.80;99.90;;;;;;4967312;28;20042;-77
2022/03/28 04:00:04;;;;;;;19.23;10.32;;;6.80;99.90;;;;;;4984921;28;20022;-77
2022/03/28 04:02:30;;;;;;;19.30;9.30;;;6.80;99.90;;;;;;4968178;28;20034;-77
2022/03/28 04:04:55;;;;;;;18.73;8.40;;;6.80;99.90;;;;;;4966470;28;20563;-76
2022/03/28 04:07:21;;;;;;;12.05;6.80;;;6.80;99.90;;;;;;4970525;28;20041;-76
2022/03/28 04:09:46;;;;;;;7.72;5.53;;;6.80;99.90;;;;;;4966603;28;20510;-76
2022/03/28 04:12:12;;;;;;;9.15;5.80;;;6.80;99.90;;;;;;4986365;28;20053;-77
2022/03/28 04:14:38;;;;;;;8.23;5.63;;;6.80;99.90;;;;;;4969701;28;20038;-77
2022/03/28 04:17:04;;;;;;;10.00;5.60;;;6.80;99.90;;;;;;4986861;28;20023;-76
2022/03/28 04:19:30;;;;;;;9.30;5.68;;;6.80;99.90;;;;;;4967887;28;20022;-77
2022/03/28 04:21:55;;;;;;;10.88;6.50;;;6.80;99.90;;;;;;4987198;28;20057;-77
2022/03/28 04:24:21;;;;;;;13.27;6.22;;;6.80;99.90;;;;;;4968184;28;20085;-77
2022/03/28 04:26:47;;;;;;;10.00;6.00;;;6.80;99.90;;;;;;4986108;28;20397;-76
2022/03/28 04:29:13;;;;;;;14.32;6.60;;;6.80;99.90;;;;;;4986366;28;20035;-76
2022/03/28 04:31:40;;;;;;;8.45;6.10;;;6.80;99.90;;;;;;4975540;28;20030;-76
2022/03/28 04:34:09;;;;;;;15.93;6.78;;;6.80;99.90;;;;;;4977874;28;20109;-76
2022/03/28 04:36:38;;;;;;;10.33;5.83;;;6.80;99.90;;;;;;4973413;28;20251;-76
2022/03/28 04:39:05;;;;;;;13.00;5.88;;;6.80;99.90;;;;;;4986217;28;20030;-77
2022/03/28 04:41:31;;;;;;;9.88;5.45;;;6.80;99.90;;;;;;4965226;28;20037;-77
2022/03/28 04:43:57;;;;;;;7.53;5.13;;;6.70;99.90;;;;;;4966421;28;20022;-76
2022/03/28 04:46:23;;;;;;;9.13;5.10;;;6.80;99.90;;;;;;4985685;28;20031;-77
2022/03/28 04:48:49;;;;;;;8.48;5.10;;;6.80;99.90;;;;;;4965771;28;20475;-77
2022/03/28 04:51:17;;;;;;;10.02;5.00;;;6.70;99.90;;;;;;4982510;28;20556;-76
2022/03/28 04:53:43;;;;;;;7.80;4.50;;;6.70;99.90;;;;;;4993891;28;20098;-78
2022/03/28 04:56:09;;;;;;;7.72;4.85;;;6.70;99.90;;;;;;4976580;28;20030;-77
2022/03/28 04:58:35;;;;;;;9.75;5.32;;;6.70;99.90;;;;;;4985951;28;20030;-77
2022/03/28 05:01:00;;;;;;;10.00;5.55;;;6.70;99.90;;;;;;4984907;28;20018;-76
2022/03/28 05:03:26;;;;;;;8.70;4.47;;;6.70;99.90;;;;;;5002507;28;20041;-75
2022/03/28 05:05:51;;;;;;;7.45;4.50;;;6.60;99.90;;;;;;4977548;28;20035;-78
2022/03/28 05:08:19;;;;;;;8.85;5.03;;;6.60;99.90;;;;;;4976316;28;20054;-77
2022/03/28 05:10:45;;;;;;;9.32;4.53;;;6.50;99.90;;;;;;4975461;28;20027;-77
2022/03/28 05:13:10;;;;;;;10.68;5.03;;;6.60;99.90;;;;;;4989160;28;20034;-77
2022/03/28 05:15:36;;;;;;;15.00;6.53;;;6.60;99.90;;;;;;4965855;28;20038;-78
2022/03/28 05:18:02;;;;;;;9.60;4.97;;;6.60;99.90;;;;;;4965722;28;20023;-78
2022/03/28 05:20:28;;;;;;;10.55;5.72;;;6.60;99.90;;;;;;4989952;28;20041;-79
2022/03/28 05:22:54;;;;;;;10.02;5.00;;;6.60;99.90;;;;;;4985841;28;20030;-78
2022/03/28 05:25:19;;;;;;;9.02;5.25;;;6.70;99.90;;;;;;4984105;28;20106;-77
2022/03/28 05:27:46;;;;;;;9.43;5.57;;;6.60;99.90;;;;;;4983539;28;20031;-77
2022/03/28 05:30:12;;;;;;;8.68;5.22;;;6.70;99.90;;;;;;4982490;28;20038;-78
2022/03/28 05:32:39;;;;;;;11.35;4.88;;;6.70;99.90;;;;;;4965063;28;20030;-78
2022/03/28 05:35:06;;;;;;;9.85;5.03;;;6.60;99.90;;;;;;4982176;28;20097;-78
2022/03/28 05:37:33;;;;;;;8.55;5.38;;;6.60;99.90;;;;;;4964234;28;20037;-79
2022/03/28 05:39:59;;;;;;;8.90;5.18;;;6.60;99.90;;;;;;4968353;28;20181;-78
2022/03/28 05:42:25;;;;;;;11.20;6.03;;;6.60;99.90;;;;;;4955392;28;20026;-78
2022/03/28 05:44:51;;;;;;;9.05;5.00;;;6.70;99.90;;;;;;4977696;28;20099;-78
2022/03/28 05:47:17;;;;;;;7.28;4.18;;;6.70;99.90;;;;;;4980661;28;20065;-79
2022/03/28 05:49:42;;;;;;;8.63;4.20;;;6.80;99.90;;;;;;4972403;28;20599;-78
2022/03/28 05:52:08;;;;;;;12.88;5.78;;;6.70;99.90;;;;;;4956276;28;20513;-78
2022/03/28 05:54:35;;;;;;;13.55;5.93;;;6.70;99.90;;;;;;4984411;28;20027;-77
2022/03/28 05:57:00;;;;;;;9.75;5.28;;;6.70;99.90;;;;;;4969065;28;20037;-77
2022/03/28 05:59:26;;;;;;;8.70;4.90;;;6.70;99.90;;;;;;4971796;28;20425;-78
2022/03/28 06:01:52;;;;;;;11.02;4.93;;;6.70;99.90;;;;;;4986727;28;20045;-78
2022/03/28 06:04:18;;;;;;;9.68;4.70;;;6.70;99.90;;;;;;4967727;28;20068;-78
2022/03/28 06:06:44;;;;;;;7.80;4.15;;;6.80;99.90;;;;;;4963877;28;20691;-77
2022/03/28 06:09:10;;;;;;;8.25;4.55;;;6.90;99.90;;;;;;4966193;28;20125;-77
2022/03/28 06:11:36;;;;;;;6.28;3.50;;;7.00;99.90;;;;;;4988117;28;20501;-77
2022/03/28 06:14:03;;;;;;;5.78;3.60;;;7.00;99.90;;;;;;4963229;28;20030;-76
2022/03/28 06:16:29;;;;;;;5.20;3.15;;;6.90;99.90;;;;;;4967924;28;20026;-76
2022/03/28 06:18:55;;;;;;;7.00;3.90;;;7.00;99.90;;;;;;4966040;28;21241;-74
2022/03/28 06:21:21;;;;;;;6.85;4.18;;;6.90;99.90;;;;;;4963881;28;20027;-75
2022/03/28 06:23:46;;;;;;;8.75;4.05;;;7.00;99.90;;;;;;4961901;28;20025;-76
2022/03/28 06:26:12;;;;;;;6.10;3.53;;;7.00;99.90;;;;;;4964348;28;20557;-76
2022/03/28 06:28:39;;;;;;;8.32;3.28;;;6.90;99.90;;;;;;4981957;28;20026;-74
2022/03/28 06:31:08;;;;;;;5.47;3.03;;;6.90;99.90;;;;;;4988017;28;20069;-77
2022/03/28 06:33:35;;;;;;;6.45;3.38;;;6.90;99.90;;;;;;4965094;28;20038;-76
2022/03/28 06:36:01;;;;;;;6.00;2.95;;;6.90;99.90;;;;;;4950798;28;20131;-76
2022/03/28 06:38:27;;;;;;;7.55;3.25;;;6.90;99.90;;;;;;4986750;28;20139;-74
2022/03/28 06:40:53;;;;;;;5.03;3.00;;;6.90;99.90;;;;;;4964804;28;20022;-77
2022/03/28 06:43:19;;;;;;;6.32;3.35;;;6.90;99.90;;;;;;4953657;28;20034;-75
2022/03/28 06:45:45;;;;;;;5.80;2.78;;;6.90;99.90;;;;;;4981540;28;20614;-75
2022/03/28 06:48:11;;;;;;;5.35;3.03;;;6.80;99.90;;;;;;4963452;28;20026;-76
2022/03/28 06:50:40;;;;;;;4.25;2.60;;;6.80;99.90;;;;;;4992350;28;20030;-76
2022/03/28 06:53:05;;;;;;;3.63;1.98;;;6.90;99.90;;;;;;4964358;28;20064;-75
2022/03/28 06:55:31;;;;;;;4.40;1.90;;;6.90;99.90;;;;;;4963329;28;20462;-75
2022/03/28 06:57:57;;;;;;;2.72;1.50;;;6.90;99.90;;;;;;4961355;28;20096;-76
2022/03/28 07:00:23;;;;;;;3.05;1.73;;;7.00;99.90;;;;;;4960922;28;20029;-76
2022/03/28 07:02:49;;;;;;;3.40;1.83;;;7.00;99.90;;;;;;4963793;28;20034;-76
2022/03/28 07:05:15;;;;;;;4.05;2.00;;;7.00;99.90;;;;;;4965096;28;20486;-74
2022/03/28 07:07:43;;;;;;;3.20;2.00;;;7.00;99.90;;;;;;4986881;28;20027;-75
2022/03/28 07:10:15;;;;;;;3.55;1.92;;;7.00;99.90;;;;;;4969712;28;20069;-75
2022/03/28 07:12:41;;;;;;;3.20;1.95;;;7.00;99.90;;;;;;4967037;28;20026;-75
2022/03/28 07:15:09;;;;;;;2.08;1.23;;;7.00;99.90;;;;;;4967971;28;20061;-75
2022/03/28 07:17:54;;;;;;;1.75;1.00;;;7.00;99.90;;;;;;4964111;28;20030;-75
2022/03/28 07:20:22;;;;;;;2.15;1.00;;;7.00;99.90;;;;;;4981851;28;20018;-75
2022/03/28 07:22:48;;;;;;;2.05;0.95;;;7.00;99.90;;;;;;4965010;28;20050;-75
2022/03/28 07:25:14;;;;;;;2.05;0.93;;;7.00;99.90;;;;;;4946873;28;20018;-77
2022/03/28 07:27:41;;;;;;;1.33;0.90;;;7.00;99.90;;;;;;4964813;28;20051;-77
2022/03/28 07:30:08;;;;;;;3.15;0.68;;;7.10;99.90;;;;;;4982286;28;20038;-78
2022/03/28 07:32:34;;;;;;;1.23;0.65;;;7.20;99.90;;;;;;4965044;28;20554;-76
2022/03/28 07:35:00;;;;;;;2.47;1.10;;;7.20;99.90;;;;;;4950925;28;20029;-77
2022/03/28 07:37:26;;;;;;;2.60;1.33;;;7.30;99.90;;;;;;4982616;28;20030;-77
2022/03/28 07:39:52;;;;;;;2.85;1.42;;;7.20;99.90;;;;;;4999497;28;20081;-77
2022/03/28 07:42:18;;;;;;;2.47;1.35;;;7.30;99.90;;;;;;4987948;28;21328;-77
2022/03/28 07:44:44;;;;;;;4.82;1.60;;;7.30;99.90;;;;;;4973435;28;20023;-78
2022/03/28 07:47:10;;;;;;;3.03;2.05;;;7.30;99.90;;;;;;4971529;28;20022;-77
2022/03/28 07:49:37;;;;;;;3.95;2.80;;;7.30;99.90;;;;;;4970290;28;20778;-78
2022/03/28 07:52:06;;;;;;;5.53;3.40;;;7.40;99.90;;;;;;4969571;28;20101;-77
2022/03/28 07:54:32;;;;;;;6.13;4.05;;;7.40;99.90;;;;;;4976716;28;20081;-78
2022/03/28 07:56:58;;;;;;;6.15;4.22;;;7.40;99.90;;;;;;4957936;28;20398;-78
2022/03/28 07:59:24;;;;;;;8.68;4.40;;;7.40;99.90;;;;;;4953026;28;20038;-78
2022/03/28 08:01:51;;;;;;;7.43;4.38;;;7.40;99.90;;;;;;4972077;28;20057;-78
2022/03/28 08:04:17;;;;;;;6.95;4.47;;;7.40;99.90;;;;;;4966125;28;20022;-77
2022/03/28 08:06:43;;;;;;;7.35;4.78;;;7.40;99.90;;;;;;4989977;28;20030;-80
2022/03/28 08:09:09;;;;;;;7.82;4.88;;;7.40;99.90;;;;;;4963571;28;20402;-77
2022/03/28 08:11:35;;;;;;;9.05;6.35;;;7.30;99.90;;;;;;4973305;28;20037;-78
2022/03/28 08:14:02;;;;;;;11.30;5.47;;;7.30;99.90;;;;;;4971208;28;20031;-79
2022/03/28 08:16:28;;;;;;;8.50;5.75;;;7.30;99.90;;;;;;4987309;28;20492;-77
2022/03/28 08:18:54;;;;;;;9.10;5.70;;;7.30;99.90;;;;;;4969919;28;20046;-78
2022/03/28 08:21:19;;;;;;;8.00;5.65;;;7.30;99.90;;;;;;4988686;28;20088;-78
2022/03/28 08:23:45;;;;;;;9.13;6.07;;;7.30;99.90;;;;;;4978016;28;20490;-80
2022/03/28 08:26:10;;;;;;;8.02;5.30;;;7.40;99.90;;;;;;4973468;28;20033;-78
2022/03/28 08:28:36;;;;;;;9.45;5.20;;;7.40;99.90;;;;;;4995110;28;20033;-77
2022/03/28 08:31:03;;;;;;;8.15;5.10;;;7.50;99.90;;;;;;4979370;28;20066;-77
2022/03/28 08:33:28;;;;;;;8.93;4.55;;;7.50;99.90;;;;;;4982267;28;20031;-77
2022/03/28 08:35:54;;;;;;;6.40;3.83;;;7.50;99.90;;;;;;4985454;28;20177;-78
2022/03/28 08:38:21;;;;;;;7.32;4.25;;;7.40;99.90;;;;;;4992276;28;20022;-79
2022/03/28 08:40:48;;;;;;;7.07;4.60;;;7.40;99.90;;;;;;4973609;28;20026;-79
2022/03/28 08:43:20;;;;;;;7.20;4.95;;;7.40;99.90;;;;;;4974233;28;20027;-79
2022/03/28 08:45:49;;;;;;;6.20;4.75;;;7.40;99.90;;;;;;4971278;28;20061;-78
2022/03/28 08:48:15;;;;;;;8.13;5.28;;;7.40;99.90;;;;;;4971551;28;20030;-78
2022/03/28 08:50:43;;;;;;;7.93;4.93;;;7.30;99.90;;;;;;4993741;28;20031;-79
2022/03/28 08:53:09;;;;;;;8.32;4.97;;;7.40;99.90;;;;;;4987744;28;20041;-77
2022/03/28 08:55:35;;;;;;;8.70;4.85;;;7.40;99.90;;;;;;4989862;28;20098;-79
2022/03/28 08:58:00;;;;;;;5.82;4.05;;;7.40;99.90;;;;;;4970113;28;20038;-78
2022/03/28 09:00:26;;;;;;;7.07;3.97;;;7.50;99.90;;;;;;4985710;28;20106;-77
2022/03/28 09:02:56;;;;;;;6.47;4.63;;;7.40;99.90;;;;;;4974539;28;20062;-78
2022/03/28 09:05:49;;;;;;;7.93;4.50;;;7.50;99.90;;;;;;4955398;28;20018;-79
2022/03/28 09:08:15;;;;;;;7.70;4.35;;;7.50;99.90;;;;;;4984657;28;20446;-78
2022/03/28 09:10:47;;;;;;;4.78;2.83;;;7.60;99.90;;;;;;4969395;28;20093;-79
2022/03/28 09:13:16;;;;;;;5.30;3.22;;;7.70;99.90;;;;;;4955680;28;20022;-78
2022/03/28 09:15:51;;;;;;;4.03;2.95;;;7.70;99.90;;;;;;4969641;28;20121;-79
2022/03/28 09:18:31;;;;;;;6.03;3.40;;;7.70;99.90;;;;;;4989337;28;20033;-79
2022/03/28 09:21:01;;;;;;;7.93;3.35;;;7.90;99.90;;;;;;4993781;28;20022;-79
2022/03/28 09:23:29;;;;;;;7.60;4.38;;;8.00;99.90;;;;;;4988114;28;20042;-77
2022/03/28 09:25:57;;;;;;;5.80;3.80;;;8.10;99.90;;;;;;4987107;28;20125;-77
2022/03/28 09:28:40;;;;;;;6.00;4.28;;;8.10;99.90;;;;;;4956015;28;20022;-77
2022/03/28 09:31:19;;;;;;;6.65;4.50;;;8.10;99.90;;;;;;4969371;28;20026;-79
2022/03/28 09:33:51;;;;;;;7.07;5.03;;;8.20;99.90;;;;;;4969165;28;20113;-78
2022/03/28 09:36:17;;;;;;;7.07;4.47;;;8.30;99.90;;;;;;4970786;28;20022;-78
2022/03/28 09:38:56;;;;;;;8.15;5.13;;;8.30;99.90;;;;;;4956049;28;20084;-78
2022/03/28 09:41:27;;;;;;;6.72;4.53;;;8.50;99.90;;;;;;4989207;28;20018;-78
2022/03/28 09:43:56;;;;;;;6.45;4.25;;;8.50;99.90;;;;;;4966499;28;20084;-78
2022/03/28 09:46:29;;;;;;;10.10;5.03;;;8.50;99.90;;;;;;4981548;28;20556;-78
2022/03/28 09:48:58;;;;;;;6.85;4.32;;;8.70;99.90;;;;;;4981718;28;20035;-73
2022/03/28 09:51:26;;;;;;;6.93;4.55;;;8.70;99.90;;;;;;4981700;28;20125;-72
2022/03/28 09:53:52;;;;;;;8.95;4.53;;;8.70;99.90;;;;;;4964581;28;20035;-78
2022/03/28 09:56:18;;;;;;;10.35;4.43;;;8.80;99.90;;;;;;4968964;28;20033;-78
2022/03/28 09:58:46;;;;;;;5.35;3.90;;;8.80;99.90;;;;;;4986761;28;20025;-77
2022/03/28 10:01:43;;;;;;;5.40;3.85;;;9.00;99.90;;;;;;4966723;28;20054;-78
2022/03/28 10:04:10;;;;;;;7.18;4.68;;;9.00;99.90;;;;;;4989143;28;20022;-79
2022/03/28 10:06:39;;;;;;;6.28;4.13;;;9.00;99.90;;;;;;4987903;28;20026;-78
2022/03/28 10:09:07;;;;;;;7.35;4.65;;;9.10;99.90;;;;;;4970756;28;20038;-79
2022/03/28 10:11:34;;;;;;;7.15;4.38;;;9.10;99.90;;;;;;4972004;28;20037;-78
2022/03/28 10:14:00;;;;;;;11.65;4.53;;;9.20;99.90;;;;;;4970955;28;20034;-78
2022/03/28 10:16:26;;;;;;;8.65;4.28;;;9.30;99.90;;;;;;4966957;28;20038;-78
2022/03/28 10:18:52;;;;;;;5.85;4.20;;;9.40;99.90;;;;;;4999651;28;20042;-78
2022/03/28 10:21:23;;;;;;;5.38;4.00;;;9.40;99.90;;;;;;4986277;28;20022;-78
2022/03/28 10:24:24;;;;;;;7.15;4.55;;;9.50;99.90;;;;;;4988508;28;20034;-78
2022/03/28 10:26:56;;;;;;;6.95;4.25;;;9.60;99.90;;;;;;4942401;28;20070;-78
2022/03/28 10:29:23;;;;;;;6.13;4.30;;;9.60;99.90;;;;;;4970128;28;20117;-78
2022/03/28 10:31:54;;;;;;;7.93;4.63;;;9.60;99.90;;;;;;4987994;28;20157;-78
2022/03/28 10:34:38;;;;;;;7.22;4.50;;;9.70;99.90;;;;;;4969439;28;20022;-79
2022/03/28 10:37:24;;;;;;;5.80;4.07;;;9.60;99.90;;;;;;4971297;28;20134;-79
2022/03/28 10:39:49;;;;;;;5.07;3.78;;;9.70;99.90;;;;;;4958689;28;20070;-79
2022/03/28 10:42:24;;;;;;;6.95;4.05;;;9.90;99.90;;;;;;4969049;28;20068;-78
2022/03/28 10:45:00;;;;;;;5.53;3.60;;;10.10;99.90;;;;;;4982602;28;20050;-77
2022/03/28 10:47:51;;;;;;;22.90;10.02;;;10.50;99.90;;;;;;4983876;28;20511;-76
2022/03/28 10:50:24;;;;;;;6.95;4.22;;;10.90;99.90;;;;;;4970836;28;20121;-77
2022/03/28 10:53:08;;;;;;;6.90;3.97;;;10.90;99.90;;;;;;4964166;28;20030;-77
2022/03/28 10:55:49;;;;;;;7.20;4.32;;;10.70;99.90;;;;;;4963609;28;20406;-76
2022/03/28 10:58:20;;;;;;;9.80;5.00;;;10.80;99.90;;;;;;4967348;28;20038;-77
2022/03/28 11:01:28;;;;;;;7.22;3.90;;;10.90;99.90;;;;;;4976806;28;20324;-78
2022/03/28 11:04:03;;;;;;;9.30;4.25;;;10.90;99.90;;;;;;4927704;29;20129;-78
2022/03/28 11:07:00;;;;;;;5.85;4.75;;;11.10;99.90;;;;;;4942248;29;20036;-77
2022/03/28 11:09:50;;;;;;;8.75;6.55;;;11.20;99.90;;;;;;4926734;29;20043;-76
2022/03/28 11:12:20;;;;;;;10.60;6.35;;;11.80;99.90;;;;;;4924185;29;20046;-75
2022/03/28 11:14:51;;;;;;;7.22;6.13;;;12.70;98.60;;;;;;4937206;29;20103;-80
2022/03/28 11:17:16;;;;;;;;;;;13.80;96.90;;;;;;4927193;29;20106;-80
2022/03/28 11:20:01;;;;;;;6.90;4.90;;;14.10;93.60;;;;;;4943446;29;19910;-80
2022/03/28 11:22:47;;;;;;;9.77;5.20;;;14.00;93.40;;;;;;4934840;29;20040;-79
2022/03/28 11:25:51;;;;;;;172.15;62.10;;;13.80;91.80;;;;;;4930922;29;20035;-79
2022/03/28 11:28:23;;;;;;;70.60;27.45;;;13.80;95.10;;;;;;4903329;29;20527;-78
2022/03/28 11:30:51;;;;;;;10.82;6.45;;;14.30;93.70;;;;;;4899501;29;20027;-80
2022/03/28 11:33:23;;;;;;;6.22;4.18;;;13.80;91.60;;;;;;4932943;29;20456;-80
2022/03/28 11:35:57;;;;;;;6.22;2.95;;;14.20;92.70;;;;;;4901341;29;20115;-79
2022/03/28 11:38:26;;;;;;;6.88;3.88;;;14.70;92.10;;;;;;4930931;29;20092;-78
2022/03/28 11:40:53;;;;;;;6.40;3.42;;;14.50;90.20;;;;;;4941073;28;20083;-78
2022/03/28 11:43:26;;;;;;;6.30;3.40;;;14.30;88.70;;;;;;4971484;28;20019;-79
2022/03/28 11:45:54;;;;;;;7.07;3.50;;;14.00;87.80;;;;;;4969348;28;20514;-80
2022/03/28 11:48:20;;;;;;;5.85;3.00;;;13.60;89.50;;;;;;4953244;28;20038;-80
2022/03/28 11:50:47;;;;;;;7.07;3.20;;;13.60;91.00;;;;;;4966770;28;20019;-80
2022/03/28 11:53:14;;;;;;;5.05;3.20;;;13.50;91.20;;;;;;4986862;28;20101;-80
2022/03/28 11:55:50;;;;;;;5.30;3.75;;;13.40;90.30;;;;;;4985355;28;20031;-81
2022/03/28 11:58:16;;;;;;;6.10;3.20;;;13.20;91.00;;;;;;4970668;28;20586;-80
2022/03/28 12:00:45;;;;;;;5.72;3.10;;;13.40;92.30;;;;;;4984600;28;20034;-80
2022/03/28 12:03:13;;;;;;;7.85;3.08;;;13.80;89.30;;;;;;4969525;28;20042;-80
2022/03/28 12:05:46;;;;;;;6.45;2.80;;;13.80;90.40;;;;;;4981963;28;20467;-80
2022/03/28 12:08:13;;;;;;;6.50;3.47;;;13.70;90.40;;;;;;4960566;28;20489;-80
2022/03/28 12:10:41;;;;;;;9.27;3.22;;;13.60;90.20;;;;;;4969357;28;20026;-81
2022/03/28 12:13:07;;;;;;;10.27;3.38;;;13.70;89.70;;;;;;4969377;28;20033;-79
2022/03/28 12:15:36;;;;;;;5.82;3.75;;;13.40;88.90;;;;;;4969345;28;20070;-81
2022/03/28 12:18:04;;;;;;;8.23;3.83;;;13.10;89.80;;;;;;4986209;28;20111;-80
2022/03/28 12:20:33;;;;;;;7.03;3.63;;;12.90;90.00;;;;;;4982426;28;20402;-80
2022/03/28 12:23:01;;;;;;;7.80;3.92;;;12.50;90.70;;;;;;4967290;28;20034;-80
2022/03/28 12:25:50;;;;;;;8.52;4.05;;;12.40;91.60;;;;;;4989464;28;20099;-81
2022/03/28 12:28:29;;;;;;;4.95;4.00;;;12.50;92.10;;;;;;4955506;28;20023;-81
2022/03/28 12:30:59;;;;;;;6.50;4.38;;;12.50;91.90;;;;;;4974909;28;20204;-80
2022/03/28 12:33:28;;;;;;;9.48;4.72;;;12.40;91.80;;;;;;4971426;28;20027;-79
2022/03/28 12:35:59;;;;;;;9.65;5.05;;;12.80;91.30;;;;;;4967345;28;20046;-80
2022/03/28 12:38:42;;;;;;;7.72;4.32;;;12.90;90.20;;;;;;5000247;28;20037;-79
2022/03/28 12:41:17;;;;;;;7.60;4.43;;;12.70;90.90;;;;;;4971843;28;20035;-80
2022/03/28 12:43:48;;;;;;;6.63;3.88;;;12.60;90.90;;;;;;4985410;28;20055;-79
2022/03/28 12:46:16;;;;;;;8.40;4.07;;;12.60;91.30;;;;;;4982854;28;20532;-80
2022/03/28 12:49:13;;;;;;;6.90;4.65;;;12.70;91.10;;;;;;4971090;28;20510;-79
2022/03/28 12:51:40;;;;;;;9.68;4.82;;;12.60;90.80;;;;;;4960330;28;20036;-81
2022/03/28 12:54:17;;;;;;;8.82;5.13;;;12.50;91.10;;;;;;4972544;28;20034;-81
2022/03/28 12:56:45;;;;;;;7.22;4.70;;;12.30;91.30;;;;;;4957063;28;20541;-80
2022/03/28 12:59:19;;;;;;;7.07;4.70;;;12.10;91.70;;;;;;4978483;28;20146;-81